Time;durP1;ratioP1;P1;durP2;ratioP2;P2;SDS_P1;SDS_P2;PMS_P1;PMS_P2;Temp;Humidity;BMP_temperature;BMP_pressure;BME280_temperature;BME280_humidity;BME280_pressure;Samples;Min_cycle;Max_cycle;Signal;HPM_P1;HPM_P2
2022/07/16 00:03:03;;;;;;;2.67;2.03;;;15.90;76.80;;;;;;5052502;28;20344;-72
2022/07/16 00:05:29;;;;;;;4.07;2.20;;;15.80;77.10;;;;;;5053832;28;20268;-73
2022/07/16 00:07:54;;;;;;;2.40;2.20;;;15.80;77.60;;;;;;5053581;28;20581;-73
2022/07/16 00:10:21;;;;;;;3.58;2.00;;;15.80;77.30;;;;;;5053975;28;20193;-73
2022/07/16 00:12:46;;;;;;;2.50;2.20;;;15.70;78.20;;;;;;5053749;28;20269;-74
2022/07/16 00:15:12;;;;;;;7.38;2.30;;;15.70;78.30;;;;;;5052766;28;20308;-74
2022/07/16 00:17:38;;;;;;;2.28;2.08;;;15.70;78.60;;;;;;5053430;28;20399;-74
2022/07/16 00:20:05;;;;;;;2.17;1.98;;;15.60;79.20;;;;;;5053460;28;20289;-74
2022/07/16 00:22:31;;;;;;;3.35;2.15;;;15.60;79.20;;;;;;5053127;28;20714;-74
2022/07/16 00:24:56;;;;;;;3.45;2.50;;;15.60;80.00;;;;;;5053353;28;20190;-74
2022/07/16 00:27:22;;;;;;;3.08;2.22;;;15.50;80.50;;;;;;5052889;28;20213;-74
2022/07/16 00:29:48;;;;;;;2.50;2.05;;;15.50;81.40;;;;;;5053278;28;20177;-74
2022/07/16 00:32:14;;;;;;;4.38;2.40;;;15.40;81.20;;;;;;5053704;28;20185;-74
2022/07/16 00:34:40;;;;;;;3.30;2.40;;;15.30;81.70;;;;;;5053096;28;20173;-74
2022/07/16 00:37:05;;;;;;;3.65;2.13;;;15.30;83.10;;;;;;5053035;28;20182;-73
2022/07/16 00:39:31;;;;;;;6.85;2.25;;;15.30;83.80;;;;;;5053170;28;20194;-74
2022/07/16 00:41:57;;;;;;;4.18;2.40;;;15.30;84.20;;;;;;5053551;28;20177;-74
2022/07/16 00:44:23;;;;;;;3.30;2.28;;;15.30;85.10;;;;;;5052902;28;20178;-74
2022/07/16 00:46:49;;;;;;;2.75;2.20;;;15.20;85.10;;;;;;5047114;28;20197;-73
2022/07/16 00:49:16;;;;;;;3.60;2.50;;;15.20;85.40;;;;;;5053056;28;20264;-75
2022/07/16 00:51:51;;;;;;;2.72;2.20;;;15.10;86.20;;;;;;5051659;28;20177;-73
2022/07/16 00:54:17;;;;;;;3.33;2.42;;;15.10;86.50;;;;;;5052816;28;20180;-74
2022/07/16 00:56:43;;;;;;;3.30;2.20;;;15.10;87.00;;;;;;5051962;28;20648;-73
2022/07/16 00:59:10;;;;;;;3.40;2.30;;;15.00;87.70;;;;;;5052198;28;20554;-72
2022/07/16 01:01:35;;;;;;;2.10;1.90;;;15.00;87.90;;;;;;5051584;28;20181;-76
2022/07/16 01:04:05;;;;;;;3.10;2.25;;;15.00;88.70;;;;;;5051422;28;20221;-74
2022/07/16 01:06:31;;;;;;;5.28;2.33;;;14.90;89.10;;;;;;5052722;28;20173;-73
2022/07/16 01:08:58;;;;;;;2.40;2.15;;;15.00;89.50;;;;;;5051691;28;20645;-73
2022/07/16 01:11:23;;;;;;;2.72;2.35;;;14.90;90.00;;;;;;5052234;28;20212;-73
2022/07/16 01:13:50;;;;;;;4.32;2.40;;;14.90;90.40;;;;;;5052178;28;20652;-74
2022/07/16 01:16:16;;;;;;;3.05;2.40;;;14.80;90.70;;;;;;5046591;28;20577;-74
2022/07/16 01:18:43;;;;;;;4.30;2.85;;;14.80;90.80;;;;;;5052547;28;20185;-74
2022/07/16 01:21:09;;;;;;;3.78;2.65;;;14.80;91.00;;;;;;5052310;28;20217;-73
2022/07/16 01:23:34;;;;;;;4.05;2.40;;;14.80;91.30;;;;;;5050637;28;20229;-74
2022/07/16 01:26:00;;;;;;;4.28;2.45;;;14.70;91.30;;;;;;5051108;28;20204;-74
2022/07/16 01:28:26;;;;;;;2.53;2.33;;;14.70;91.50;;;;;;5051778;28;20181;-74
2022/07/16 01:30:52;;;;;;;4.65;2.45;;;14.60;91.70;;;;;;5052367;28;20235;-74
2022/07/16 01:33:23;;;;;;;5.43;2.20;;;14.60;92.10;;;;;;5052072;28;20177;-74
2022/07/16 01:35:58;;;;;;;2.35;2.00;;;14.60;92.10;;;;;;5041156;28;20176;-75
2022/07/16 01:38:24;;;;;;;6.15;2.70;;;14.50;92.10;;;;;;5050106;28;20177;-75
2022/07/16 01:40:50;;;;;;;2.97;2.40;;;14.50;92.10;;;;;;5052081;28;20169;-75
2022/07/16 01:43:18;;;;;;;2.88;2.60;;;14.50;92.10;;;;;;5052153;28;20236;-75
2022/07/16 01:45:44;;;;;;;3.42;2.30;;;14.40;92.70;;;;;;5051015;28;20178;-77
2022/07/16 01:48:10;;;;;;;3.53;1.92;;;14.40;92.30;;;;;;5051425;28;20212;-75
2022/07/16 01:50:36;;;;;;;2.63;2.33;;;14.40;92.70;;;;;;5051869;28;20664;-76
2022/07/16 01:53:02;;;;;;;3.30;2.20;;;14.30;92.80;;;;;;5052074;28;20209;-75
2022/07/16 01:55:28;;;;;;;4.38;2.20;;;14.30;92.90;;;;;;5050574;28;20663;-75
2022/07/16 01:57:53;;;;;;;6.57;2.40;;;14.30;92.90;;;;;;5050129;28;20177;-75
2022/07/16 02:00:19;;;;;;;4.82;2.40;;;14.30;93.10;;;;;;5051465;28;20185;-75
2022/07/16 02:02:44;;;;;;;3.25;2.13;;;14.30;93.10;;;;;;5052855;28;20205;-78
2022/07/16 02:05:10;;;;;;;3.63;2.22;;;14.20;93.10;;;;;;5051934;28;20197;-74
2022/07/16 02:07:35;;;;;;;2.53;2.10;;;14.20;93.30;;;;;;5051332;28;20177;-75
2022/07/16 02:10:01;;;;;;;3.33;2.40;;;14.10;93.50;;;;;;5051147;28;20264;-77
2022/07/16 02:12:26;;;;;;;3.05;2.03;;;14.10;94.00;;;;;;5051485;28;20178;-76
2022/07/16 02:14:52;;;;;;;3.00;2.20;;;14.10;94.10;;;;;;5050796;28;20177;-75
2022/07/16 02:17:17;;;;;;;2.60;2.05;;;14.00;93.90;;;;;;5051498;28;20189;-74
2022/07/16 02:19:43;;;;;;;3.38;2.10;;;14.00;93.90;;;;;;5051279;28;20272;-77
2022/07/16 02:22:09;;;;;;;3.38;2.30;;;14.00;94.00;;;;;;5050980;28;20225;-74
2022/07/16 02:24:34;;;;;;;2.95;1.77;;;14.00;94.20;;;;;;5049437;28;20182;-75
2022/07/16 02:27:00;;;;;;;3.65;2.03;;;13.90;94.50;;;;;;5051225;28;20173;-76
2022/07/16 02:29:26;;;;;;;2.67;2.40;;;13.90;94.70;;;;;;5051491;28;20196;-74
2022/07/16 02:31:51;;;;;;;2.95;2.03;;;13.90;94.90;;;;;;5051606;28;20181;-77
2022/07/16 02:34:17;;;;;;;2.28;2.00;;;13.90;95.00;;;;;;5051482;28;20617;-76
2022/07/16 02:36:42;;;;;;;4.38;2.13;;;13.90;94.80;;;;;;5050624;28;20173;-74
2022/07/16 02:39:08;;;;;;;4.03;2.40;;;13.80;95.00;;;;;;5049925;28;20522;-73
2022/07/16 02:41:33;;;;;;;3.20;2.45;;;13.80;95.10;;;;;;5050967;28;20182;-74
2022/07/16 02:43:59;;;;;;;5.80;2.42;;;13.70;95.40;;;;;;5051734;28;20181;-75
2022/07/16 02:46:24;;;;;;;4.53;2.25;;;13.70;95.50;;;;;;5051165;28;20185;-74
2022/07/16 02:48:50;;;;;;;6.82;2.30;;;13.70;95.50;;;;;;5049435;28;20181;-75
2022/07/16 02:51:15;;;;;;;3.25;2.28;;;13.60;95.60;;;;;;5051073;28;20638;-74
2022/07/16 02:53:41;;;;;;;2.60;2.20;;;13.60;96.00;;;;;;5051300;28;20248;-74
2022/07/16 02:56:07;;;;;;;3.70;2.30;;;13.60;95.60;;;;;;5050965;28;20296;-74
2022/07/16 02:58:32;;;;;;;4.13;2.35;;;13.60;95.60;;;;;;5050239;28;20220;-74
2022/07/16 03:00:58;;;;;;;2.50;2.20;;;13.50;95.80;;;;;;5050732;28;20594;-74
2022/07/16 03:03:23;;;;;;;3.47;2.20;;;13.50;95.90;;;;;;5050108;28;20672;-75
2022/07/16 03:05:49;;;;;;;5.70;2.38;;;13.50;96.00;;;;;;5051089;28;20185;-75
2022/07/16 03:08:15;;;;;;;3.60;2.22;;;13.50;96.20;;;;;;5050646;28;20181;-74
2022/07/16 03:10:40;;;;;;;4.20;2.20;;;13.50;96.20;;;;;;5049285;28;20186;-74
2022/07/16 03:13:06;;;;;;;4.82;2.30;;;13.50;96.40;;;;;;5049509;28;20745;-73
2022/07/16 03:15:31;;;;;;;3.75;2.00;;;13.50;96.50;;;;;;5049741;28;20205;-74
2022/07/16 03:17:57;;;;;;;2.72;2.20;;;13.50;96.30;;;;;;5050314;28;20176;-75
2022/07/16 03:20:23;;;;;;;3.17;2.15;;;13.50;96.30;;;;;;5050751;28;20192;-74
2022/07/16 03:22:49;;;;;;;4.05;1.92;;;13.50;96.20;;;;;;5051196;28;20185;-74
2022/07/16 03:25:15;;;;;;;3.78;2.30;;;13.40;96.10;;;;;;5050569;28;20182;-74
2022/07/16 03:27:41;;;;;;;2.97;1.90;;;13.40;96.20;;;;;;5050638;28;20190;-74
2022/07/16 03:30:07;;;;;;;5.68;2.30;;;13.40;96.60;;;;;;5050559;28;20200;-74
2022/07/16 03:32:33;;;;;;;3.40;2.53;;;13.30;96.30;;;;;;5050523;28;20225;-75
2022/07/16 03:34:58;;;;;;;2.38;2.00;;;13.30;96.30;;;;;;5050551;28;20276;-74
2022/07/16 03:37:24;;;;;;;4.47;2.50;;;13.30;96.70;;;;;;5052870;28;20185;-74
2022/07/16 03:39:49;;;;;;;2.15;1.95;;;13.30;96.80;;;;;;5052908;28;20716;-74
2022/07/16 03:42:15;;;;;;;2.63;2.10;;;13.30;97.10;;;;;;5054457;28;20280;-73
2022/07/16 03:44:40;;;;;;;2.70;2.25;;;13.30;97.00;;;;;;5052762;28;20185;-73
2022/07/16 03:47:06;;;;;;;3.05;2.15;;;13.30;97.20;;;;;;5054390;28;20227;-72
2022/07/16 03:49:31;;;;;;;3.50;2.03;;;13.30;97.20;;;;;;5053535;28;20208;-74
2022/07/16 03:51:57;;;;;;;4.05;1.95;;;13.30;97.30;;;;;;5019455;28;20180;-74
2022/07/16 03:54:22;;;;;;;2.90;2.08;;;13.30;97.30;;;;;;5052925;28;20221;-73
2022/07/16 03:56:48;;;;;;;2.60;2.00;;;13.30;97.30;;;;;;5053958;28;20177;-74
2022/07/16 03:59:13;;;;;;;3.30;2.20;;;13.30;97.40;;;;;;5052238;28;20227;-74
2022/07/16 04:01:39;;;;;;;2.88;2.13;;;13.30;97.80;;;;;;5053633;28;20178;-74
2022/07/16 04:04:05;;;;;;;3.65;2.22;;;13.30;97.50;;;;;;5053708;28;20192;-74
2022/07/16 04:06:30;;;;;;;3.10;2.15;;;13.30;97.60;;;;;;5053766;28;20182;-73
2022/07/16 04:08:56;;;;;;;6.28;2.20;;;13.20;97.70;;;;;;5054028;28;20174;-74
2022/07/16 04:11:22;;;;;;;3.58;2.10;;;13.30;97.60;;;;;;5053961;28;20239;-73
2022/07/16 04:13:47;;;;;;;3.08;2.00;;;13.20;97.60;;;;;;5053154;28;20221;-73
2022/07/16 04:16:13;;;;;;;3.85;2.03;;;13.20;97.50;;;;;;5053454;28;20641;-73
2022/07/16 04:18:38;;;;;;;2.92;2.30;;;13.20;97.60;;;;;;5053755;28;20177;-73
2022/07/16 04:21:05;;;;;;;2.22;1.92;;;13.30;97.60;;;;;;5053339;28;20753;-72
2022/07/16 04:23:31;;;;;;;4.63;1.98;;;13.30;97.60;;;;;;5044323;28;20185;-73
2022/07/16 04:25:57;;;;;;;2.58;1.98;;;13.40;97.50;;;;;;5053283;28;20181;-73
2022/07/16 04:28:23;;;;;;;2.13;1.92;;;13.40;97.40;;;;;;5053075;28;20189;-73
2022/07/16 04:30:48;;;;;;;3.90;1.98;;;13.40;97.30;;;;;;5053195;28;20185;-73
2022/07/16 04:33:14;;;;;;;5.45;2.10;;;13.50;97.50;;;;;;5052979;28;20213;-72
2022/07/16 04:35:40;;;;;;;2.75;2.25;;;13.80;97.60;;;;;;5052837;28;20944;-73
2022/07/16 04:38:05;;;;;;;2.63;2.08;;;14.00;97.40;;;;;;5051957;28;20280;-72
2022/07/16 04:40:31;;;;;;;4.00;2.22;;;14.40;96.80;;;;;;5052195;28;20189;-73
2022/07/16 04:42:56;;;;;;;2.90;2.10;;;14.80;96.10;;;;;;5052978;28;20833;-74
2022/07/16 04:45:22;;;;;;;2.85;2.42;;;15.20;95.20;;;;;;5052861;28;20261;-73
2022/07/16 04:47:48;;;;;;;3.53;2.30;;;15.60;94.60;;;;;;5052369;28;20624;-74
2022/07/16 04:50:14;;;;;;;2.30;2.10;;;15.90;93.90;;;;;;5053125;28;20532;-72
2022/07/16 04:52:39;;;;;;;3.75;2.58;;;16.40;93.30;;;;;;5051763;28;20292;-74
2022/07/16 04:55:05;;;;;;;3.35;2.60;;;16.80;92.10;;;;;;5052159;28;20177;-72
2022/07/16 04:57:31;;;;;;;2.67;2.35;;;17.20;91.00;;;;;;5052534;28;20188;-74
2022/07/16 04:59:57;;;;;;;3.00;2.20;;;17.50;90.40;;;;;;5052464;28;20190;-74
2022/07/16 05:05:07;;;;;;;2.53;2.00;;;18.20;87.60;;;;;;5046956;28;20188;-72
2022/07/16 05:07:32;;;;;;;3.88;2.10;;;18.60;85.60;;;;;;5051382;28;20177;-74
2022/07/16 05:09:58;;;;;;;3.78;1.98;;;18.90;84.30;;;;;;5052776;28;20261;-71
2022/07/16 05:12:23;;;;;;;4.97;2.80;;;19.30;82.60;;;;;;5052445;28;20178;-72
2022/07/16 05:14:49;;;;;;;3.05;2.35;;;19.50;81.30;;;;;;5050537;28;20648;-71
2022/07/16 05:17:14;;;;;;;5.15;2.33;;;19.80;79.50;;;;;;5052747;28;20212;-70
2022/07/16 05:19:40;;;;;;;4.45;2.85;;;20.20;78.60;;;;;;5052093;28;20264;-71
2022/07/16 05:22:05;;;;;;;4.35;2.40;;;20.60;76.80;;;;;;5051975;28;20614;-71
2022/07/16 05:24:32;;;;;;;3.85;2.20;;;20.90;74.80;;;;;;5051094;28;20188;-72
2022/07/16 05:26:57;;;;;;;2.50;1.85;;;21.30;73.30;;;;;;5051771;28;20169;-71
2022/07/16 05:29:23;;;;;;;2.55;1.73;;;21.70;71.40;;;;;;5052165;28;20235;-70
2022/07/16 05:31:48;;;;;;;1.92;1.75;;;22.20;68.20;;;;;;5052465;28;20201;-72
2022/07/16 05:34:14;;;;;;;2.35;1.88;;;22.70;65.50;;;;;;5051938;28;20216;-72
2022/07/16 05:36:39;;;;;;;2.92;1.85;;;23.20;64.40;;;;;;5052763;28;20636;-73
2022/07/16 05:39:05;;;;;;;4.90;1.77;;;23.60;63.00;;;;;;5052165;28;20204;-70
2022/07/16 05:41:30;;;;;;;2.85;1.80;;;24.00;61.50;;;;;;5051607;28;20185;-69
2022/07/16 05:43:57;;;;;;;4.45;1.90;;;24.40;59.80;;;;;;5054511;28;20177;-68
2022/07/16 05:46:23;;;;;;;2.35;2.05;;;24.80;58.30;;;;;;5051840;28;20200;-69
2022/07/16 05:48:48;;;;;;;6.38;3.78;;;25.20;57.40;;;;;;5052677;28;20252;-68
2022/07/16 05:51:14;;;;;;;3.92;2.28;;;25.60;56.30;;;;;;5052214;28;20250;-74
2022/07/16 05:53:39;;;;;;;2.72;1.95;;;25.90;55.80;;;;;;5052676;28;20216;-66
2022/07/16 05:56:05;;;;;;;2.78;1.80;;;26.20;55.40;;;;;;5052144;28;20272;-68
2022/07/16 05:58:31;;;;;;;3.65;2.13;;;26.60;54.80;;;;;;5051949;28;20196;-66
2022/07/16 06:00:56;;;;;;;2.45;2.03;;;26.90;54.00;;;;;;5051261;28;20582;-67
2022/07/16 06:03:22;;;;;;;4.03;2.42;;;27.20;53.40;;;;;;5051055;28;20182;-69
2022/07/16 06:05:47;;;;;;;5.07;2.08;;;27.70;52.00;;;;;;5052084;28;20641;-71
2022/07/16 06:08:13;;;;;;;5.35;1.98;;;28.30;51.10;;;;;;5051496;28;20728;-67
2022/07/16 06:10:38;;;;;;;3.13;1.83;;;28.80;50.20;;;;;;5052981;28;20268;-70
2022/07/16 06:13:04;;;;;;;2.03;1.75;;;29.20;48.40;;;;;;5051968;28;20217;-69
2022/07/16 06:15:29;;;;;;;1.50;1.33;;;29.50;47.50;;;;;;5051601;28;20537;-71
2022/07/16 06:17:55;;;;;;;1.98;1.55;;;29.90;46.50;;;;;;5051591;28;20636;-71
2022/07/16 06:20:21;;;;;;;2.65;1.63;;;30.30;46.00;;;;;;5050833;28;20193;-70
2022/07/16 06:22:46;;;;;;;3.58;1.52;;;30.70;45.20;;;;;;5051660;28;20265;-73
2022/07/16 06:25:12;;;;;;;3.35;1.70;;;31.10;43.00;;;;;;5051980;28;20177;-69
2022/07/16 06:27:44;;;;;;;1.75;1.30;;;31.40;42.80;;;;;;5053767;28;20174;-70
2022/07/16 06:30:11;;;;;;;3.22;1.60;;;31.70;41.80;;;;;;5050544;28;20731;-70
2022/07/16 06:32:38;;;;;;;1.60;1.50;;;31.50;42.40;;;;;;5051050;28;20266;-71
2022/07/16 06:35:04;;;;;;;2.55;1.30;;;31.50;42.00;;;;;;5050258;28;20192;-72
2022/07/16 06:37:29;;;;;;;1.50;1.40;;;31.60;41.40;;;;;;5049820;28;20180;-69
2022/07/16 06:39:55;;;;;;;4.15;1.50;;;31.90;41.70;;;;;;5050832;28;20263;-71
2022/07/16 06:42:20;;;;;;;1.42;1.27;;;32.20;41.10;;;;;;5050410;28;20176;-70
2022/07/16 06:44:46;;;;;;;1.90;1.40;;;32.60;40.00;;;;;;5050505;28;20173;-70
2022/07/16 06:47:11;;;;;;;1.80;1.17;;;33.00;38.40;;;;;;5050359;28;20264;-70
2022/07/16 06:49:37;;;;;;;5.18;1.50;;;33.50;38.00;;;;;;5052016;28;20267;-70
2022/07/16 06:52:02;;;;;;;3.13;1.38;;;33.80;38.00;;;;;;5050505;28;20184;-69
2022/07/16 06:54:28;;;;;;;1.25;1.13;;;34.10;37.10;;;;;;5051359;28;20258;-69
2022/07/16 06:56:54;;;;;;;2.72;1.50;;;34.20;36.70;;;;;;5051062;28;20259;-69
2022/07/16 06:59:19;;;;;;;2.40;1.40;;;34.40;36.60;;;;;;5050736;28;20187;-69
2022/07/16 07:01:44;;;;;;;3.35;1.40;;;34.70;35.90;;;;;;5050947;28;20184;-69
2022/07/16 07:04:10;;;;;;;2.38;1.35;;;35.10;35.10;;;;;;5051613;28;20181;-69
2022/07/16 07:06:35;;;;;;;4.80;1.35;;;35.30;34.80;;;;;;5051761;28;20180;-69
2022/07/16 07:09:01;;;;;;;1.63;1.20;;;35.20;34.50;;;;;;5051529;28;20177;-69
2022/07/16 07:11:27;;;;;;;3.08;1.20;;;35.20;34.10;;;;;;5052855;28;20176;-69
2022/07/16 07:13:52;;;;;;;1.40;1.20;;;35.30;34.30;;;;;;5054982;28;20227;-69
2022/07/16 07:16:18;;;;;;;1.80;1.35;;;35.50;34.90;;;;;;5035316;28;20197;-69
2022/07/16 07:18:44;;;;;;;1.42;1.33;;;35.60;34.80;;;;;;5035549;28;20268;-69
2022/07/16 07:21:10;;;;;;;4.05;1.70;;;35.60;35.10;;;;;;5047123;28;20259;-68
2022/07/16 07:23:35;;;;;;;1.83;1.30;;;35.50;34.40;;;;;;5055359;28;20189;-69
2022/07/16 07:26:01;;;;;;;3.08;1.20;;;35.60;34.60;;;;;;5055204;28;20173;-69
2022/07/16 07:28:28;;;;;;;2.55;1.50;;;35.50;33.60;;;;;;5053878;28;20632;-69
2022/07/16 07:30:54;;;;;;;1.65;1.30;;;35.50;34.60;;;;;;5055037;28;20172;-69
2022/07/16 07:33:20;;;;;;;1.70;1.40;;;35.30;34.80;;;;;;5054954;28;20221;-68
2022/07/16 07:35:45;;;;;;;1.40;1.30;;;35.40;34.60;;;;;;5055179;28;20180;-69
2022/07/16 07:38:11;;;;;;;1.73;1.30;;;35.50;34.20;;;;;;5053712;28;20251;-68
2022/07/16 07:40:36;;;;;;;1.73;1.30;;;35.60;33.90;;;;;;5054424;28;20216;-68
2022/07/16 07:43:04;;;;;;;2.55;1.52;;;35.40;33.10;;;;;;5054427;28;20234;-68
2022/07/16 07:45:29;;;;;;;2.22;1.38;;;35.20;34.20;;;;;;5054575;28;20188;-68
2022/07/16 07:47:55;;;;;;;5.25;1.70;;;34.90;34.90;;;;;;5054839;28;20551;-68
2022/07/16 07:50:21;;;;;;;2.55;1.23;;;35.10;35.40;;;;;;5054807;28;20176;-68
2022/07/16 07:52:46;;;;;;;2.25;1.30;;;35.40;34.60;;;;;;5054517;28;20212;-69
2022/07/16 07:55:12;;;;;;;1.80;1.10;;;35.50;34.30;;;;;;5054565;28;20231;-68
2022/07/16 07:57:38;;;;;;;1.40;1.10;;;35.60;34.70;;;;;;5054254;28;20264;-68
2022/07/16 08:00:06;;;;;;;1.52;1.02;;;35.40;33.40;;;;;;5054567;28;20185;-68
2022/07/16 08:02:31;;;;;;;4.00;1.30;;;35.40;33.90;;;;;;5054371;28;20304;-68
2022/07/16 08:04:57;;;;;;;1.55;1.15;;;35.40;33.10;;;;;;5054599;28;20259;-69
2022/07/16 08:07:22;;;;;;;2.00;1.17;;;35.20;34.60;;;;;;5056127;28;20204;-68
2022/07/16 08:09:48;;;;;;;1.42;1.20;;;35.00;33.10;;;;;;5071280;28;20173;-68
2022/07/16 08:12:13;;;;;;;1.67;1.40;;;34.80;34.30;;;;;;5054439;28;20687;-68
2022/07/16 08:14:39;;;;;;;2.60;1.33;;;34.90;34.60;;;;;;5046856;28;20193;-68
2022/07/16 08:17:05;;;;;;;3.55;1.75;;;35.00;35.30;;;;;;5034239;28;20274;-68
2022/07/16 08:19:31;;;;;;;3.83;1.00;;;34.60;34.10;;;;;;5034073;28;20184;-68
2022/07/16 08:21:57;;;;;;;2.65;1.10;;;34.40;35.50;;;;;;5052392;28;20231;-69
2022/07/16 08:27:07;;;;;;;1.83;1.10;;;34.30;35.00;;;;;;5054044;28;20211;-68
2022/07/16 08:29:32;;;;;;;3.03;1.05;;;34.60;34.60;;;;;;5054053;28;20628;-69
2022/07/16 08:31:58;;;;;;;2.00;1.30;;;34.50;34.40;;;;;;5053883;28;20185;-68
2022/07/16 08:34:24;;;;;;;2.30;1.42;;;34.40;34.90;;;;;;5053729;28;20208;-68
2022/07/16 08:36:51;;;;;;;2.38;1.40;;;34.40;34.40;;;;;;5053627;28;20191;-68
2022/07/16 08:39:16;;;;;;;1.77;1.17;;;34.30;35.10;;;;;;5053537;28;20215;-68
2022/07/16 08:41:42;;;;;;;2.45;1.48;;;34.40;35.10;;;;;;5053771;28;20172;-69
2022/07/16 08:44:11;;;;;;;1.88;1.27;;;34.60;35.60;;;;;;5053586;28;20537;-67
2022/07/16 08:46:37;;;;;;;1.75;1.20;;;34.60;34.60;;;;;;5053429;28;20188;-68
2022/07/16 08:49:03;;;;;;;1.35;1.23;;;34.30;34.70;;;;;;5052248;28;20263;-68
2022/07/16 08:51:32;;;;;;;1.73;1.50;;;34.20;35.60;;;;;;5053452;28;20181;-68
2022/07/16 08:54:06;;;;;;;2.22;0.90;;;34.30;36.10;;;;;;5053280;28;20213;-69
2022/07/16 08:56:33;;;;;;;1.75;1.33;;;34.40;34.30;;;;;;5053462;28;20181;-68
2022/07/16 08:59:00;;;;;;;3.13;1.10;;;34.10;34.60;;;;;;5053392;28;20180;-68
2022/07/16 09:01:29;;;;;;;3.15;2.85;;;34.00;34.80;;;;;;5053334;28;20184;-67
2022/07/16 09:03:56;;;;;;;3.05;1.23;;;34.10;35.20;;;;;;5053385;28;20208;-68
2022/07/16 09:06:22;;;;;;;2.05;1.10;;;34.00;35.00;;;;;;5053239;28;20181;-68
2022/07/16 09:08:47;;;;;;;3.63;1.00;;;33.80;35.30;;;;;;5053297;28;20655;-69
2022/07/16 09:11:22;;;;;;;2.65;1.58;;;33.90;36.30;;;;;;5053202;28;20180;-68
2022/07/16 09:14:11;;;;;;;1.77;1.20;;;33.90;35.00;;;;;;5053104;28;20216;-69
2022/07/16 09:16:39;;;;;;;1.70;1.02;;;33.80;35.70;;;;;;5032892;28;20571;-69
2022/07/16 09:19:19;;;;;;;2.72;1.15;;;33.70;35.30;;;;;;5033107;28;20590;-68
2022/07/16 09:22:03;;;;;;;4.07;1.20;;;33.10;35.00;;;;;;5049558;28;20221;-69
2022/07/16 09:24:45;;;;;;;1.42;0.98;;;32.70;36.10;;;;;;5052776;28;20553;-68
2022/07/16 09:27:16;;;;;;;1.45;0.98;;;32.60;35.70;;;;;;5052729;28;20272;-68
2022/07/16 09:29:51;;;;;;;2.00;1.00;;;32.50;34.90;;;;;;5052804;28;20256;-68
2022/07/16 09:32:27;;;;;;;1.60;1.10;;;32.40;36.40;;;;;;5052621;28;20181;-68
2022/07/16 09:35:05;;;;;;;0.88;0.70;;;32.10;35.70;;;;;;5052648;28;20706;-68
2022/07/16 09:37:51;;;;;;;2.38;1.27;;;32.30;35.40;;;;;;5052479;28;20189;-68
2022/07/16 09:40:39;;;;;;;1.73;1.00;;;32.50;36.40;;;;;;5052438;28;20182;-68
2022/07/16 09:43:18;;;;;;;2.45;1.15;;;32.80;36.70;;;;;;5052520;28;20174;-68
2022/07/16 09:45:50;;;;;;;1.15;1.05;;;32.90;36.30;;;;;;5052575;28;20185;-68
2022/07/16 09:48:26;;;;;;;1.73;1.25;;;32.70;35.80;;;;;;5052306;28;20231;-68
2022/07/16 09:50:54;;;;;;;1.45;1.00;;;32.70;35.90;;;;;;5052376;28;20728;-68
2022/07/16 09:53:22;;;;;;;2.60;0.90;;;32.80;35.50;;;;;;5052066;28;20347;-68
2022/07/16 09:56:05;;;;;;;2.03;1.10;;;32.90;35.90;;;;;;5052486;28;20209;-68
2022/07/16 09:58:31;;;;;;;1.67;0.90;;;32.90;35.20;;;;;;5052256;28;20648;-68
2022/07/16 10:00:59;;;;;;;3.90;2.53;;;33.00;34.90;;;;;;5052023;28;20646;-68
2022/07/16 10:03:25;;;;;;;1.00;0.90;;;32.80;37.10;;;;;;5052114;28;20209;-69
2022/07/16 10:05:50;;;;;;;1.23;1.00;;;32.70;35.00;;;;;;5052180;28;20186;-68
2022/07/16 10:08:17;;;;;;;2.85;0.80;;;32.90;36.60;;;;;;5051723;28;20188;-69
2022/07/16 10:10:44;;;;;;;2.03;1.02;;;33.00;34.10;;;;;;5052034;28;20183;-69
2022/07/16 10:13:10;;;;;;;1.23;1.00;;;33.20;35.00;;;;;;5051675;28;20420;-68
2022/07/16 10:15:37;;;;;;;2.17;0.80;;;33.30;34.10;;;;;;5038425;28;20661;-69
2022/07/16 10:18:03;;;;;;;1.75;0.80;;;33.20;33.80;;;;;;5031952;28;20654;-68
2022/07/16 10:20:35;;;;;;;2.90;0.90;;;33.10;34.20;;;;;;5038105;28;20220;-68
2022/07/16 10:23:05;;;;;;;1.55;0.80;;;33.20;33.80;;;;;;5051735;28;20184;-69
2022/07/16 10:25:32;;;;;;;1.40;0.70;;;33.30;34.10;;;;;;5051768;28;20203;-68
2022/07/16 10:27:58;;;;;;;1.17;1.08;;;33.30;33.50;;;;;;5051675;28;20663;-68
2022/07/16 10:30:31;;;;;;;1.15;1.02;;;33.30;34.80;;;;;;5051746;28;20170;-68
2022/07/16 10:33:00;;;;;;;1.30;1.02;;;33.30;34.50;;;;;;5051506;28;20714;-68
2022/07/16 10:35:32;;;;;;;1.33;0.90;;;33.40;33.50;;;;;;5051745;28;20193;-68
2022/07/16 10:38:08;;;;;;;0.80;0.80;;;33.30;33.10;;;;;;5051586;28;20189;-68
2022/07/16 10:40:36;;;;;;;1.80;0.98;;;33.10;33.60;;;;;;5051558;28;20215;-68
2022/07/16 10:43:10;;;;;;;1.67;0.80;;;33.00;34.10;;;;;;5051630;28;20180;-67
2022/07/16 10:45:56;;;;;;;1.80;0.82;;;32.60;34.20;;;;;;5051208;28;20192;-67
2022/07/16 10:48:35;;;;;;;0.88;0.70;;;31.80;35.30;;;;;;5051547;28;20177;-68
2022/07/16 10:51:21;;;;;;;2.30;0.93;;;31.90;36.30;;;;;;5051523;28;20227;-67
2022/07/16 10:53:56;;;;;;;0.95;0.90;;;32.00;36.40;;;;;;5051549;28;20671;-67
2022/07/16 10:56:45;;;;;;;1.65;1.10;;;32.20;36.10;;;;;;5050191;28;20615;-67
2022/07/16 10:59:13;;;;;;;2.08;1.15;;;32.00;35.30;;;;;;5051600;28;20211;-67
2022/07/16 11:01:40;;;;;;;3.33;0.90;;;31.90;36.10;;;;;;5051519;28;20177;-67
2022/07/16 11:04:06;;;;;;;1.25;0.90;;;32.10;36.10;;;;;;5051589;28;20174;-67
2022/07/16 11:06:32;;;;;;;0.93;0.93;;;32.20;36.90;;;;;;5051283;28;20265;-66
2022/07/16 11:09:00;;;;;;;2.63;1.00;;;32.30;37.00;;;;;;5051438;28;20699;-67
2022/07/16 11:11:55;;;;;;;2.00;1.10;;;32.40;36.90;;;;;;5051397;28;20181;-67
2022/07/16 11:14:29;;;;;;;1.55;1.23;;;32.50;37.40;;;;;;5047750;28;20237;-67
2022/07/16 11:16:56;;;;;;;2.35;0.95;;;32.70;37.50;;;;;;5031598;28;20174;-67
2022/07/16 11:19:21;;;;;;;1.13;1.02;;;33.00;36.60;;;;;;5031310;28;20174;-67
2022/07/16 11:22:01;;;;;;;1.48;1.00;;;33.10;36.00;;;;;;5048413;28;20225;-67
2022/07/16 11:24:27;;;;;;;0.98;0.80;;;33.10;36.40;;;;;;5051283;28;20177;-67
2022/07/16 11:26:55;;;;;;;2.42;1.10;;;33.00;34.10;;;;;;5051314;28;20629;-67
2022/07/16 11:29:22;;;;;;;1.25;0.90;;;32.60;34.30;;;;;;5051137;28;20243;-67
2022/07/16 11:31:48;;;;;;;0.98;0.90;;;32.10;34.30;;;;;;5051256;28;20239;-67
2022/07/16 11:34:14;;;;;;;2.05;1.17;;;31.80;35.40;;;;;;5051149;28;20867;-67
2022/07/16 11:36:44;;;;;;;2.00;1.20;;;31.60;35.70;;;;;;5050982;28;20174;-67
2022/07/16 11:39:11;;;;;;;2.53;0.80;;;31.40;36.20;;;;;;5051308;28;20529;-67
2022/07/16 11:41:39;;;;;;;1.70;1.30;;;31.30;36.20;;;;;;5051045;28;20177;-67
2022/07/16 11:44:09;;;;;;;1.67;1.40;;;31.10;36.70;;;;;;5051249;28;20205;-67
2022/07/16 11:46:42;;;;;;;1.98;1.20;;;31.10;36.80;;;;;;5051036;28;20185;-68
2022/07/16 11:49:07;;;;;;;2.28;1.55;;;31.00;36.40;;;;;;5051066;28;20178;-67
2022/07/16 11:51:38;;;;;;;1.20;1.10;;;30.80;37.10;;;;;;5050967;28;20196;-67
2022/07/16 11:54:03;;;;;;;2.25;1.40;;;31.00;37.40;;;;;;5050940;28;20224;-67
2022/07/16 11:56:40;;;;;;;1.75;1.48;;;31.00;36.80;;;;;;5050887;28;20174;-67
2022/07/16 11:59:20;;;;;;;1.33;1.20;;;30.90;37.10;;;;;;5052958;28;20173;-66
2022/07/16 12:01:47;;;;;;;2.42;1.20;;;30.90;38.00;;;;;;5054610;28;20252;-67
2022/07/16 12:04:13;;;;;;;1.40;1.30;;;31.20;37.80;;;;;;5054432;28;20628;-68
2022/07/16 12:06:45;;;;;;;1.45;1.35;;;31.60;37.10;;;;;;5054469;28;20186;-67
2022/07/16 12:09:10;;;;;;;2.58;1.52;;;31.80;36.90;;;;;;5054361;28;20208;-67
2022/07/16 12:11:36;;;;;;;1.50;1.40;;;31.80;36.60;;;;;;5054391;28;20636;-67
2022/07/16 12:14:02;;;;;;;3.10;2.17;;;31.70;36.70;;;;;;5054031;28;20686;-67
2022/07/16 12:16:29;;;;;;;2.67;1.60;;;31.70;38.00;;;;;;5034291;28;20182;-67
2022/07/16 12:19:13;;;;;;;1.73;1.30;;;31.50;38.20;;;;;;5034388;28;20174;-67
2022/07/16 12:21:39;;;;;;;1.30;1.20;;;31.50;36.30;;;;;;5049956;28;20300;-66
2022/07/16 12:24:07;;;;;;;3.80;1.45;;;31.20;37.40;;;;;;5053700;28;20628;-66
2022/07/16 12:26:37;;;;;;;2.03;1.45;;;31.10;38.70;;;;;;5053757;28;20211;-66
2022/07/16 12:29:06;;;;;;;3.03;1.50;;;31.10;38.70;;;;;;5053704;28;20185;-66
2022/07/16 12:31:32;;;;;;;4.05;1.50;;;31.10;37.90;;;;;;5054112;28;20182;-66
2022/07/16 12:34:01;;;;;;;4.53;1.50;;;31.30;38.10;;;;;;5052123;28;20216;-66
2022/07/16 12:36:34;;;;;;;4.20;1.25;;;31.50;38.40;;;;;;5053873;28;20188;-65
2022/07/16 12:39:05;;;;;;;1.73;1.27;;;31.70;37.70;;;;;;5053318;28;20592;-66
2022/07/16 12:41:39;;;;;;;2.90;1.50;;;31.90;37.60;;;;;;5053698;28;20189;-65
2022/07/16 12:44:06;;;;;;;2.88;1.30;;;32.20;37.50;;;;;;5051745;28;20189;-66
2022/07/16 12:46:37;;;;;;;2.22;1.30;;;32.20;36.70;;;;;;5052400;28;20182;-67
2022/07/16 12:49:10;;;;;;;2.08;1.48;;;32.20;36.30;;;;;;5053385;28;20272;-66
2022/07/16 12:51:39;;;;;;;2.05;1.35;;;32.30;36.90;;;;;;5053051;28;20178;-69
2022/07/16 12:54:06;;;;;;;2.85;1.27;;;32.30;37.00;;;;;;5053410;28;20606;-68
2022/07/16 12:59:18;;;;;;;2.10;1.40;;;32.00;36.30;;;;;;5053454;28;20215;-69